createdAt,value
2023-05-23T00:01:08.218Z,78.89
2023-05-23T00:02:30.596Z,78.26
2023-05-23T00:03:55.963Z,76.37
2023-05-23T00:05:18.052Z,77.09
2023-05-23T00:06:44.817Z,77.80
2023-05-23T00:08:06.924Z,77.62
2023-05-23T00:09:29.736Z,78.21
2023-05-23T00:10:51.663Z,78.92
2023-05-23T00:12:14.482Z,80.39
2023-05-23T00:13:37.471Z,79.70
2023-05-23T00:15:00.698Z,80.09
2023-05-23T00:16:23.980Z,79.53
2023-05-23T00:17:47.019Z,80.03
2023-05-23T00:19:10.249Z,80.28
2023-05-23T00:20:34.714Z,83.04
2023-05-23T00:21:58.662Z,83.37
2023-05-23T00:23:22.515Z,82.94
2023-05-23T00:24:45.427Z,83.82
2023-05-23T00:26:07.298Z,83.42
2023-05-23T00:27:30.361Z,82.96
2023-05-23T00:28:53.138Z,82.43
2023-05-23T00:30:16.232Z,83.05
2023-05-23T00:31:39.503Z,82.10
2023-05-23T00:33:02.322Z,82.19
2023-05-23T00:34:24.198Z,81.60
2023-05-23T00:35:47.216Z,80.72
2023-05-23T00:37:10.053Z,80.77
2023-05-23T00:38:31.954Z,80.95
2023-05-23T00:39:54.783Z,80.40
2023-05-23T00:41:18.504Z,82.15
2023-05-23T00:42:41.625Z,82.77
2023-05-23T00:44:03.474Z,85.50
2023-05-23T00:45:26.420Z,89.53
2023-05-23T00:46:54.438Z,88.55
2023-05-23T00:48:16.652Z,89.44
2023-05-23T00:49:39.714Z,87.76
2023-05-23T00:51:02.408Z,86.20
2023-05-23T00:52:25.770Z,87.72
2023-05-23T00:53:49.393Z,87.04
2023-05-23T00:55:12.159Z,86.93
2023-05-23T00:56:35.296Z,86.27
2023-05-23T00:57:58.363Z,87.38
2023-05-23T00:59:22.365Z,88.28
2023-05-23T01:00:45.955Z,87.54
2023-05-23T01:02:09.260Z,87.21
2023-05-23T01:03:32.292Z,86.90
2023-05-23T01:04:55.599Z,85.71
2023-05-23T01:06:18.641Z,85.75
2023-05-23T01:07:40.603Z,87.34
2023-05-23T01:09:03.776Z,87.27
2023-05-23T01:10:29.111Z,87.92
2023-05-23T01:11:59.679Z,88.98
2023-05-23T01:13:39.048Z,88.16
2023-05-23T01:15:10.119Z,88.49
2023-05-23T01:16:36.175Z,87.89
2023-05-23T01:18:08.482Z,88.35
2023-05-23T01:19:51.935Z,88.93
2023-05-23T01:21:18.994Z,91.05
2023-05-23T01:23:00.447Z,89.69
2023-05-23T01:24:37.040Z,89.73
2023-05-23T01:26:19.712Z,91.27
2023-05-23T01:28:03.030Z,91.87
2023-05-23T01:29:28.386Z,92.50
2023-05-23T01:30:53.305Z,94.19
2023-05-23T01:32:17.236Z,92.45
2023-05-23T01:33:41.849Z,91.19
2023-05-23T01:35:06.484Z,93.84
2023-05-23T01:36:29.345Z,93.97
2023-05-23T01:37:51.200Z,93.65
2023-05-23T01:39:14.107Z,93.65
2023-05-23T01:40:37.320Z,94.06
2023-05-23T01:41:59.648Z,94.60
2023-05-23T01:43:25.688Z,93.69
2023-05-23T01:44:48.817Z,94.18
2023-05-23T01:46:12.623Z,93.22
2023-05-23T01:47:35.668Z,92.88
2023-05-23T01:48:59.990Z,94.48
2023-05-23T01:50:24.167Z,95.22
2023-05-23T01:51:46.483Z,96.23
2023-05-23T01:53:11.204Z,96.84
2023-05-23T01:54:35.295Z,96.90
2023-05-23T01:55:58.468Z,96.30
2023-05-23T01:57:20.968Z,95.16
2023-05-23T01:58:45.368Z,93.86
2023-05-23T02:00:10.972Z,93.63
2023-05-23T02:01:34.579Z,94.52
2023-05-23T02:02:56.575Z,95.33
2023-05-23T02:04:19.731Z,95.58
2023-05-23T02:05:42.847Z,94.63
2023-05-23T02:07:06.075Z,100.00
2023-05-23T02:08:28.878Z,100.00
2023-05-23T02:09:51.761Z,98.72
2023-05-23T02:11:13.619Z,97.18
2023-05-23T02:12:36.534Z,97.00
2023-05-23T02:14:00.964Z,97.67
2023-05-23T02:15:23.971Z,97.18
2023-05-23T02:16:46.810Z,97.72
2023-05-23T02:18:08.851Z,97.76
2023-05-23T02:19:31.968Z,97.45
2023-05-23T02:20:53.958Z,100.00
2023-05-23T02:22:16.791Z,98.97
2023-05-23T02:23:38.738Z,96.99
2023-05-23T02:25:01.684Z,98.45
2023-05-23T02:26:24.731Z,100.00
2023-05-23T02:27:46.644Z,100.00
2023-05-23T02:29:10.784Z,99.93
2023-05-23T02:30:33.610Z,98.55
2023-05-23T02:31:55.564Z,97.79
2023-05-23T02:33:19.777Z,98.98
2023-05-23T02:34:41.855Z,99.67
2023-05-23T02:36:05.156Z,100.00
2023-05-23T02:37:27.095Z,100.00
2023-05-23T02:38:49.935Z,100.00
2023-05-23T02:40:12.266Z,100.00
2023-05-23T02:41:35.207Z,100.00
2023-05-23T02:42:57.377Z,99.64
2023-05-23T02:44:21.725Z,98.08
2023-05-23T02:45:43.786Z,99.03
2023-05-23T02:47:07.498Z,98.51
2023-05-23T02:48:29.427Z,99.25
2023-05-23T02:49:52.410Z,100.00
2023-05-23T02:51:14.558Z,100.00
2023-05-23T02:52:37.476Z,100.00
2023-05-23T02:53:59.460Z,100.00
2023-05-23T02:55:22.708Z,100.00
2023-05-23T02:56:45.630Z,100.00
2023-05-23T02:58:09.054Z,100.00
2023-05-23T02:59:33.323Z,100.00
2023-05-23T03:00:55.232Z,100.00
2023-05-23T03:02:18.179Z,100.00
2023-05-23T03:03:41.677Z,100.00
2023-05-23T03:05:06.270Z,100.00
2023-05-23T03:06:29.582Z,100.00
2023-05-23T03:07:54.856Z,99.84
2023-05-23T03:09:18.278Z,99.43
2023-05-23T03:10:40.266Z,100.00
2023-05-23T03:12:03.169Z,99.46
2023-05-23T03:13:25.173Z,99.36
2023-05-23T03:14:49.501Z,99.19
2023-05-23T03:16:12.624Z,99.22
2023-05-23T03:17:35.590Z,98.62
2023-05-23T03:18:57.642Z,98.26
2023-05-23T03:20:20.832Z,97.25
2023-05-23T03:21:44.356Z,97.38
2023-05-23T03:23:07.759Z,96.99
2023-05-23T03:24:32.130Z,96.11
2023-05-23T03:25:54.155Z,98.11
2023-05-23T03:27:17.184Z,97.32
2023-05-23T03:28:39.162Z,98.73
2023-05-23T03:30:03.946Z,99.31
2023-05-23T03:31:26.979Z,100.00
2023-05-23T03:32:50.076Z,100.00
2023-05-23T03:34:13.206Z,98.81
2023-05-23T03:35:36.153Z,98.45
2023-05-23T03:36:59.067Z,97.92
2023-05-23T03:38:21.988Z,98.30
2023-05-23T03:39:44.028Z,100.00
2023-05-23T03:41:07.178Z,100.00
2023-05-23T03:42:30.322Z,100.00
2023-05-23T03:43:53.358Z,100.00
2023-05-23T03:45:16.696Z,100.00
2023-05-23T03:46:40.378Z,100.00
2023-05-23T03:48:02.957Z,100.00
2023-05-23T03:49:26.263Z,100.00
2023-05-23T03:50:49.313Z,99.33
2023-05-23T03:52:11.286Z,99.31
2023-05-23T03:53:36.537Z,100.00
2023-05-23T03:54:59.753Z,100.00
2023-05-23T03:56:22.969Z,100.00
2023-05-23T03:57:45.129Z,100.00
2023-05-23T03:59:08.198Z,100.00
2023-05-23T04:00:31.676Z,100.00
2023-05-23T04:01:55.187Z,99.47
2023-05-23T04:03:18.798Z,99.46
2023-05-23T04:04:42.116Z,100.00
2023-05-23T04:06:04.702Z,99.60
2023-05-23T04:07:27.775Z,100.00
2023-05-23T04:08:50.878Z,100.00
2023-05-23T04:10:12.969Z,100.00
2023-05-23T04:11:36.059Z,100.00
2023-05-23T04:12:58.952Z,100.00
2023-05-23T04:14:22.567Z,100.00
2023-05-23T04:15:48.079Z,100.00
2023-05-23T04:17:10.276Z,100.00
2023-05-23T04:18:34.419Z,100.00
2023-05-23T04:19:57.668Z,100.00
2023-05-23T04:21:19.889Z,100.00
2023-05-23T04:22:42.792Z,100.00
2023-05-23T04:24:06.178Z,100.00
2023-05-23T04:25:28.040Z,100.00
2023-05-23T04:26:50.851Z,100.00
2023-05-23T04:28:12.747Z,100.00
2023-05-23T04:29:36.069Z,100.00
2023-05-23T04:30:59.366Z,100.00
2023-05-23T04:32:23.151Z,100.00
2023-05-23T04:33:46.066Z,100.00
2023-05-23T04:35:08.732Z,100.00
2023-05-23T04:36:31.596Z,100.00
2023-05-23T04:37:56.671Z,100.00
2023-05-23T04:39:20.110Z,100.00
2023-05-23T04:40:42.111Z,100.00
2023-05-23T04:42:07.366Z,100.00
2023-05-23T04:43:30.173Z,100.00
2023-05-23T04:44:52.669Z,100.00
2023-05-23T04:46:16.942Z,100.00
2023-05-23T04:47:39.970Z,100.00
2023-05-23T04:49:02.244Z,100.00
2023-05-23T04:50:25.620Z,100.00
2023-05-23T04:51:48.584Z,99.32
2023-05-23T04:53:12.498Z,100.00
2023-05-23T04:54:36.271Z,100.00
2023-05-23T04:55:59.359Z,100.00
2023-05-23T04:57:22.066Z,100.00
2023-05-23T04:58:45.476Z,100.00
2023-05-23T05:00:10.390Z,100.00
2023-05-23T05:01:34.944Z,100.00
2023-05-23T05:02:57.851Z,100.00
2023-05-23T05:04:20.898Z,100.00
2023-05-23T05:05:42.898Z,99.50
2023-05-23T05:07:06.153Z,99.36
2023-05-23T05:08:28.537Z,100.00
2023-05-23T05:09:51.418Z,97.53
2023-05-23T05:11:14.236Z,97.08
2023-05-23T05:12:37.212Z,97.37
2023-05-23T05:13:59.123Z,96.62
2023-05-23T05:15:22.036Z,96.18
2023-05-23T05:16:47.043Z,97.23
2023-05-23T05:18:09.083Z,97.75
2023-05-23T05:19:32.161Z,96.61
2023-05-23T05:20:55.956Z,94.72
2023-05-23T05:22:19.053Z,93.31
2023-05-23T05:23:42.224Z,93.39
2023-05-23T05:25:06.444Z,92.80
2023-05-23T05:26:29.315Z,93.18
2023-05-23T05:27:52.729Z,91.91
2023-05-23T05:29:16.039Z,92.65
2023-05-23T05:30:39.176Z,93.39
2023-05-23T05:32:03.573Z,94.15
2023-05-23T05:33:28.443Z,93.50
2023-05-23T05:34:51.801Z,92.61
2023-05-23T05:36:14.742Z,92.27
2023-05-23T05:37:37.539Z,90.07
2023-05-23T05:39:00.615Z,90.94
2023-05-23T05:40:23.433Z,89.92
2023-05-23T05:41:46.274Z,90.28
2023-05-23T05:43:08.158Z,91.87
2023-05-23T05:44:31.288Z,91.32
2023-05-23T05:45:54.213Z,90.08
2023-05-23T05:47:18.494Z,90.18
2023-05-23T05:48:41.330Z,89.20
2023-05-23T05:50:05.180Z,88.62
2023-05-23T05:51:28.026Z,91.85
2023-05-23T05:52:51.164Z,92.05
2023-05-23T05:54:14.038Z,91.08
2023-05-23T05:55:36.907Z,90.71
2023-05-23T05:56:59.692Z,90.41
2023-05-23T05:58:22.557Z,91.01
2023-05-23T05:59:45.632Z,91.18
2023-05-23T06:01:07.505Z,91.87
2023-05-23T06:02:31.785Z,91.50
2023-05-23T06:03:54.801Z,91.05
2023-05-23T06:05:17.870Z,91.37
2023-05-23T06:06:40.705Z,92.64
2023-05-23T06:08:03.510Z,92.72
2023-05-23T06:09:26.350Z,92.53
2023-05-23T06:10:48.361Z,92.96
2023-05-23T06:12:11.165Z,92.53
2023-05-23T06:13:34.010Z,91.05
2023-05-23T06:14:56.842Z,91.70
2023-05-23T06:16:19.832Z,89.80
2023-05-23T06:17:44.903Z,89.69
2023-05-23T06:19:06.990Z,90.17
2023-05-23T06:20:29.849Z,90.39
2023-05-23T06:21:52.742Z,91.47
2023-05-23T06:23:15.562Z,90.76
2023-05-23T06:24:38.380Z,91.19
2023-05-23T06:26:01.187Z,92.00
2023-05-23T06:27:24.025Z,90.94
2023-05-23T06:28:46.896Z,91.45
2023-05-23T06:30:10.752Z,91.74
2023-05-23T06:31:33.727Z,90.28
2023-05-23T06:32:58.148Z,89.73
2023-05-23T06:34:21.094Z,88.27
2023-05-23T06:35:43.936Z,89.42
2023-05-23T06:37:06.851Z,90.18
2023-05-23T06:38:33.599Z,90.77
2023-05-23T06:39:55.626Z,90.12
2023-05-23T06:41:18.485Z,89.73
2023-05-23T06:42:40.389Z,89.36
2023-05-23T06:44:03.286Z,88.09
2023-05-23T06:45:26.141Z,87.73
2023-05-23T06:46:49.199Z,87.42
2023-05-23T06:48:13.364Z,86.45
2023-05-23T06:49:36.177Z,87.51
2023-05-23T06:50:59.005Z,88.28
2023-05-23T06:52:21.824Z,87.80
2023-05-23T06:53:44.721Z,87.10
2023-05-23T06:55:08.306Z,88.05
2023-05-23T06:56:31.177Z,86.20
2023-05-23T06:57:53.985Z,86.55
2023-05-23T06:59:17.296Z,86.18
2023-05-23T07:00:40.397Z,85.20
2023-05-23T07:02:03.340Z,84.98
2023-05-23T07:03:27.644Z,84.39
2023-05-23T07:04:50.571Z,84.20
2023-05-23T07:06:13.999Z,85.50
2023-05-23T07:07:36.827Z,84.56
2023-05-23T07:08:59.717Z,84.34
2023-05-23T07:10:22.837Z,83.58
2023-05-23T07:11:48.731Z,83.45
2023-05-23T07:13:11.631Z,82.05
2023-05-23T07:14:35.733Z,82.45
2023-05-23T07:15:58.583Z,82.49
2023-05-23T07:17:20.610Z,82.70
2023-05-23T07:18:44.827Z,81.41
2023-05-23T07:20:09.058Z,82.16
2023-05-23T07:21:31.919Z,81.28
2023-05-23T07:22:54.754Z,80.83
2023-05-23T07:24:17.596Z,80.13
2023-05-23T07:25:50.147Z,79.81
2023-05-23T07:27:23.708Z,80.21
2023-05-23T07:28:46.660Z,79.65
2023-05-23T07:30:10.629Z,79.26
2023-05-23T07:31:33.724Z,78.92
2023-05-23T07:32:56.640Z,78.67
2023-05-23T07:34:20.906Z,78.91
2023-05-23T07:35:45.084Z,79.79
2023-05-23T07:37:07.968Z,78.71
2023-05-23T07:38:31.051Z,79.33
2023-05-23T07:39:54.122Z,79.39
2023-05-23T07:41:17.000Z,79.10
2023-05-23T07:42:39.903Z,78.23
2023-05-23T07:44:02.695Z,77.72
2023-05-23T07:45:25.632Z,78.65
2023-05-23T07:46:48.734Z,78.37
2023-05-23T07:48:12.692Z,78.03
2023-05-23T07:49:36.876Z,78.23
2023-05-23T07:50:59.797Z,77.96
2023-05-23T07:52:22.650Z,79.47
2023-05-23T07:53:45.587Z,78.51
2023-05-23T07:55:09.263Z,78.54
2023-05-23T07:56:32.149Z,78.17
2023-05-23T07:57:56.488Z,78.50
2023-05-23T07:59:19.385Z,78.60
2023-05-23T08:00:42.595Z,77.54
2023-05-23T08:02:06.225Z,78.46
2023-05-23T08:03:29.107Z,78.15
2023-05-23T08:04:53.379Z,77.94
2023-05-23T08:06:16.288Z,77.60
2023-05-23T08:07:39.092Z,77.69
2023-05-23T08:09:03.003Z,77.35
2023-05-23T08:10:28.238Z,76.40
2023-05-23T08:11:51.101Z,76.75
2023-05-23T08:13:14.300Z,75.98
2023-05-23T08:14:49.904Z,76.77
2023-05-23T08:16:14.068Z,75.78
2023-05-23T08:17:37.559Z,76.22
2023-05-23T08:19:00.775Z,76.33
2023-05-23T08:20:30.684Z,76.25
2023-05-23T08:21:54.008Z,76.05
2023-05-23T08:23:17.961Z,76.13
2023-05-23T08:24:41.358Z,76.26
2023-05-23T08:26:04.207Z,76.76
2023-05-23T08:27:26.968Z,77.49
2023-05-23T08:28:49.815Z,76.88
2023-05-23T08:30:19.652Z,77.47
2023-05-23T08:31:42.453Z,77.62
2023-05-23T08:33:05.581Z,77.49
2023-05-23T08:34:28.488Z,78.00
2023-05-23T08:35:52.706Z,77.04
2023-05-23T08:37:15.479Z,76.95
2023-05-23T08:38:38.285Z,76.36
2023-05-23T08:40:01.622Z,76.32
2023-05-23T08:41:25.949Z,76.18
2023-05-23T08:42:49.376Z,75.68
2023-05-23T08:44:12.456Z,77.03
2023-05-23T08:45:35.924Z,76.93
2023-05-23T08:47:05.804Z,76.00
2023-05-23T08:48:30.659Z,76.05
2023-05-23T08:49:56.429Z,76.72
2023-05-23T08:51:23.121Z,77.17
2023-05-23T08:52:51.265Z,77.10
2023-05-23T08:54:14.228Z,78.49
2023-05-23T08:55:39.041Z,79.20
2023-05-23T08:57:02.929Z,78.49
2023-05-23T08:58:29.226Z,78.08
2023-05-23T08:59:53.089Z,78.62
2023-05-23T09:01:18.449Z,78.30
2023-05-23T09:02:41.998Z,77.76
2023-05-23T09:04:07.164Z,77.49
2023-05-23T09:05:30.075Z,77.60
2023-05-23T09:06:55.766Z,78.66
2023-05-23T09:08:19.207Z,79.08
2023-05-23T09:09:42.484Z,79.45
2023-05-23T09:11:06.920Z,78.50
2023-05-23T09:12:29.562Z,77.33
2023-05-23T09:13:52.434Z,77.31
2023-05-23T09:15:16.993Z,77.41
2023-05-23T09:16:39.821Z,77.68
2023-05-23T09:18:03.367Z,78.99
2023-05-23T09:19:26.472Z,78.96
2023-05-23T09:20:49.402Z,79.93
2023-05-23T09:22:13.689Z,79.93
2023-05-23T09:23:39.383Z,80.55
2023-05-23T09:25:02.216Z,79.85
2023-05-23T09:26:25.892Z,78.93
2023-05-23T09:27:48.677Z,78.80
2023-05-23T09:29:11.523Z,78.38
2023-05-23T09:30:35.566Z,77.96
2023-05-23T09:32:01.653Z,76.75
2023-05-23T09:33:24.501Z,77.22
2023-05-23T09:34:57.505Z,78.07
2023-05-23T09:36:20.829Z,77.63
2023-05-23T09:37:46.998Z,77.63
2023-05-23T09:39:13.094Z,78.18
2023-05-23T09:40:36.063Z,77.46
2023-05-23T09:42:00.388Z,76.54
2023-05-23T09:43:23.741Z,75.38
2023-05-23T09:44:46.613Z,75.76
2023-05-23T09:46:11.128Z,74.48
2023-05-23T09:47:34.046Z,75.47
2023-05-23T09:48:57.009Z,75.42
2023-05-23T09:50:19.979Z,74.41
2023-05-23T09:51:42.800Z,74.44
2023-05-23T09:53:07.158Z,75.12
2023-05-23T09:54:30.628Z,74.66
2023-05-23T09:55:58.520Z,74.83
2023-05-23T09:57:24.261Z,74.71
2023-05-23T09:58:49.674Z,74.54
2023-05-23T10:00:14.158Z,74.73
2023-05-23T10:01:37.623Z,73.89
2023-05-23T10:03:11.519Z,72.67
2023-05-23T10:04:36.154Z,72.77
2023-05-23T10:06:02.653Z,73.36
2023-05-23T10:07:28.212Z,73.95
2023-05-23T10:08:57.934Z,73.74
2023-05-23T10:10:21.711Z,73.53
2023-05-23T10:12:20.585Z,74.34
2023-05-23T10:13:46.192Z,75.33
2023-05-23T10:15:11.154Z,74.78
2023-05-23T10:16:41.201Z,74.24
2023-05-23T10:18:09.181Z,74.16
2023-05-23T10:19:39.571Z,74.83
2023-05-23T10:21:08.688Z,75.34
2023-05-23T10:22:33.712Z,74.87
2023-05-23T10:24:00.395Z,74.51
2023-05-23T10:25:23.541Z,73.86
2023-05-23T10:26:45.985Z,74.96
2023-05-23T10:28:09.132Z,74.45
2023-05-23T10:29:33.764Z,73.88
2023-05-23T10:30:56.685Z,75.61
2023-05-23T10:32:20.257Z,76.40
2023-05-23T10:33:51.856Z,75.59
2023-05-23T10:35:22.077Z,75.21
2023-05-23T10:36:54.630Z,75.25
2023-05-23T10:38:35.280Z,75.31
2023-05-23T10:40:05.950Z,75.12
2023-05-23T10:41:35.249Z,74.83
2023-05-23T10:43:06.811Z,75.27
2023-05-23T10:44:30.899Z,76.07
2023-05-23T10:45:53.752Z,75.18
2023-05-23T10:47:29.223Z,74.89
2023-05-23T10:48:57.743Z,75.29
2023-05-23T10:50:34.341Z,75.61
2023-05-23T10:51:57.204Z,75.97
2023-05-23T10:53:20.042Z,76.36
2023-05-23T10:54:45.257Z,76.94
2023-05-23T10:56:11.613Z,76.98
2023-05-23T10:57:34.447Z,76.62
2023-05-23T10:58:58.480Z,76.44
2023-05-23T11:00:25.051Z,76.01
2023-05-23T11:01:48.124Z,75.79
2023-05-23T11:03:11.807Z,76.00
2023-05-23T11:04:34.889Z,76.68
2023-05-23T11:05:57.803Z,77.04
2023-05-23T11:07:31.301Z,76.93
2023-05-23T11:09:04.804Z,76.87
2023-05-23T11:10:29.946Z,77.86
2023-05-23T11:12:00.678Z,77.66
2023-05-23T11:13:24.708Z,77.47
2023-05-23T11:14:55.642Z,77.74
2023-05-23T11:16:26.014Z,77.33
2023-05-23T11:17:54.677Z,78.36
2023-05-23T11:19:28.309Z,78.16
2023-05-23T11:20:55.553Z,78.24
2023-05-23T11:22:18.804Z,78.68
2023-05-23T11:23:42.665Z,78.10
2023-05-23T11:25:09.242Z,79.32
2023-05-23T11:26:33.074Z,78.50
2023-05-23T11:27:57.336Z,79.06
2023-05-23T11:29:20.506Z,78.90
2023-05-23T11:30:43.475Z,78.62
2023-05-23T11:32:16.811Z,79.22
2023-05-23T11:33:40.365Z,79.19
2023-05-23T11:35:05.209Z,78.85
2023-05-23T11:36:28.759Z,78.94
2023-05-23T11:37:51.820Z,79.05
2023-05-23T11:39:15.423Z,78.47
2023-05-23T11:40:39.887Z,78.47
2023-05-23T11:42:03.822Z,78.41
2023-05-23T11:43:27.948Z,78.17
2023-05-23T11:44:51.331Z,78.26
2023-05-23T11:46:14.153Z,78.40
2023-05-23T11:47:41.949Z,78.30
2023-05-23T11:49:11.974Z,78.58
2023-05-23T11:50:35.691Z,77.85
2023-05-23T11:51:59.416Z,78.44
2023-05-23T11:53:25.628Z,78.70
2023-05-23T11:54:48.794Z,78.98
2023-05-23T11:56:12.130Z,79.35
2023-05-23T11:57:35.043Z,78.76
2023-05-23T11:58:59.200Z,79.16
2023-05-23T12:00:22.239Z,78.86
2023-05-23T12:01:45.334Z,79.48
2023-05-23T12:03:09.380Z,80.85
2023-05-23T12:04:32.379Z,80.02
2023-05-23T12:05:56.166Z,80.13
2023-05-23T12:07:20.608Z,81.17
2023-05-23T12:08:43.441Z,80.51
2023-05-23T12:10:07.132Z,80.97
2023-05-23T12:11:32.510Z,81.90
2023-05-23T12:12:55.448Z,82.10
2023-05-23T12:14:19.747Z,83.39
2023-05-23T12:15:42.869Z,82.25
2023-05-23T12:17:06.024Z,82.13
2023-05-23T12:18:30.521Z,82.44
2023-05-23T12:19:54.161Z,83.23
2023-05-23T12:21:16.961Z,85.06
2023-05-23T12:22:39.999Z,84.75
2023-05-23T12:24:13.987Z,87.07
2023-05-23T12:25:42.496Z,89.11
2023-05-23T12:27:05.849Z,92.67
2023-05-23T12:28:36.890Z,92.89
2023-05-23T12:30:09.507Z,96.12
2023-05-23T12:31:32.537Z,97.04
2023-05-23T12:32:55.717Z,97.41
2023-05-23T12:34:18.607Z,100.00
2023-05-23T12:35:44.605Z,100.00
2023-05-23T12:37:19.069Z,100.00
2023-05-23T12:38:45.622Z,98.22
2023-05-23T12:40:14.196Z,98.33
2023-05-23T12:41:37.329Z,97.47
2023-05-23T12:43:00.603Z,96.00
2023-05-23T12:44:23.851Z,94.88
2023-05-23T12:45:48.172Z,94.52
2023-05-23T12:47:11.355Z,93.80
2023-05-23T12:48:34.256Z,94.12
2023-05-23T12:49:57.096Z,95.64
2023-05-23T12:51:21.271Z,96.12
2023-05-23T12:52:44.683Z,95.69
2023-05-23T12:54:09.208Z,95.41
2023-05-23T12:55:32.288Z,94.97
2023-05-23T12:56:55.143Z,95.27
2023-05-23T12:58:18.149Z,95.08
2023-05-23T12:59:40.977Z,96.24
2023-05-23T13:01:05.587Z,96.30
2023-05-23T13:02:28.292Z,94.18
2023-05-23T13:03:51.258Z,93.37
2023-05-23T13:05:14.135Z,95.32
2023-05-23T13:06:37.021Z,94.09
2023-05-23T13:08:00.187Z,94.96
2023-05-23T13:09:23.247Z,95.63
2023-05-23T13:10:46.116Z,93.52
2023-05-23T13:12:09.583Z,92.53
2023-05-23T13:13:32.865Z,93.85
2023-05-23T13:14:55.674Z,92.80
2023-05-23T13:16:20.124Z,92.08
2023-05-23T13:17:46.180Z,92.14
2023-05-23T13:19:12.754Z,94.54
2023-05-23T13:20:35.709Z,94.22
2023-05-23T13:21:58.996Z,92.94
2023-05-23T13:23:21.798Z,93.21
2023-05-23T13:24:44.663Z,93.27
2023-05-23T13:26:08.013Z,93.15
2023-05-23T13:27:30.931Z,91.53
2023-05-23T13:28:53.984Z,91.52
2023-05-23T13:30:17.040Z,91.05
2023-05-23T13:31:41.363Z,90.90
2023-05-23T13:33:04.935Z,89.54
2023-05-23T13:34:28.674Z,90.06
2023-05-23T13:35:52.428Z,89.50
2023-05-23T13:37:15.667Z,89.55
2023-05-23T13:38:38.737Z,90.96
2023-05-23T13:40:03.922Z,91.30
2023-05-23T13:41:27.476Z,90.90
2023-05-23T13:42:51.895Z,90.67
2023-05-23T13:44:14.880Z,88.95
2023-05-23T13:45:38.169Z,90.93
2023-05-23T13:47:13.050Z,88.94
2023-05-23T13:48:36.325Z,89.07
2023-05-23T13:49:59.196Z,90.33
2023-05-23T13:51:22.592Z,90.79
2023-05-23T13:52:48.288Z,89.10
2023-05-23T13:54:13.343Z,88.32
2023-05-23T13:55:36.650Z,88.47
2023-05-23T13:56:59.788Z,89.69
2023-05-23T13:58:22.736Z,90.21
2023-05-23T13:59:44.578Z,88.65
2023-05-23T14:01:07.420Z,88.61
2023-05-23T14:02:32.110Z,88.66
2023-05-23T14:03:54.959Z,89.16
2023-05-23T14:05:19.348Z,89.54
2023-05-23T14:06:42.293Z,89.15
2023-05-23T14:08:05.370Z,90.09
2023-05-23T14:09:28.507Z,89.59
2023-05-23T14:10:51.346Z,90.95
2023-05-23T14:12:13.222Z,90.00
2023-05-23T14:13:36.042Z,90.22
2023-05-23T14:14:57.877Z,90.27
2023-05-23T14:16:20.710Z,89.99
2023-05-23T14:17:45.029Z,89.26
2023-05-23T14:19:07.960Z,90.23
2023-05-23T14:20:30.974Z,88.67
2023-05-23T14:21:54.072Z,89.45
2023-05-23T14:23:16.868Z,89.29
2023-05-23T14:24:40.046Z,88.57
2023-05-23T14:26:02.896Z,87.71
2023-05-23T14:27:26.389Z,88.46
2023-05-23T14:28:49.308Z,88.25
2023-05-23T14:30:12.702Z,88.13
2023-05-23T14:31:35.567Z,88.38
2023-05-23T14:33:00.338Z,87.81
2023-05-23T14:34:23.360Z,87.77
2023-05-23T14:35:45.385Z,88.76
2023-05-23T14:37:08.343Z,88.23
2023-05-23T14:38:31.128Z,89.48
2023-05-23T14:39:53.943Z,88.38
2023-05-23T14:41:16.934Z,89.13
2023-05-23T14:42:39.898Z,89.55
2023-05-23T14:44:04.050Z,89.64
2023-05-23T14:45:27.320Z,89.86
2023-05-23T14:46:50.182Z,91.15
2023-05-23T14:48:14.391Z,90.58
2023-05-23T14:49:37.174Z,90.66
2023-05-23T14:51:01.623Z,90.83
2023-05-23T14:52:24.702Z,92.41
2023-05-23T14:53:47.611Z,92.47
2023-05-23T14:55:10.689Z,93.72
2023-05-23T14:56:33.677Z,94.79
2023-05-23T14:57:56.695Z,94.02
2023-05-23T14:59:18.523Z,93.53
2023-05-23T15:00:41.634Z,93.84
2023-05-23T15:02:06.132Z,93.57
2023-05-23T15:03:30.484Z,93.59
2023-05-23T15:04:53.868Z,92.70
2023-05-23T15:06:16.692Z,93.15
2023-05-23T15:07:40.053Z,93.44
2023-05-23T15:09:02.497Z,92.71
2023-05-23T15:10:25.445Z,91.47
2023-05-23T15:11:49.345Z,91.13
2023-05-23T15:13:12.361Z,92.02
2023-05-23T15:14:35.183Z,91.26
2023-05-23T15:15:57.969Z,91.75
2023-05-23T15:17:23.601Z,91.42
2023-05-23T15:18:50.037Z,89.95
2023-05-23T15:20:13.397Z,90.65
2023-05-23T15:21:35.577Z,91.40
2023-05-23T15:22:58.395Z,91.73
2023-05-23T15:24:21.667Z,90.37
2023-05-23T15:25:49.644Z,91.11
2023-05-23T15:28:41.650Z,93.68
2023-05-23T15:30:05.641Z,93.21
2023-05-23T15:31:28.525Z,91.84
2023-05-23T15:32:51.595Z,90.92
2023-05-23T15:34:16.286Z,90.40
2023-05-23T15:35:39.306Z,90.00
2023-05-23T15:37:01.237Z,91.33
2023-05-23T15:38:24.266Z,91.27
2023-05-23T15:39:48.636Z,91.03
2023-05-23T15:41:11.650Z,91.10
2023-05-23T15:42:33.601Z,90.07
2023-05-23T15:43:56.478Z,90.62
2023-05-23T15:45:19.320Z,90.71
2023-05-23T15:46:42.180Z,90.25
2023-05-23T15:48:05.323Z,89.26
2023-05-23T15:49:29.675Z,89.96
2023-05-23T15:50:52.505Z,89.39
2023-05-23T15:52:15.389Z,91.31
2023-05-23T15:53:48.301Z,90.89
2023-05-23T15:55:21.340Z,89.23
2023-05-23T15:56:45.728Z,89.75
2023-05-23T15:58:09.502Z,89.52
2023-05-23T15:59:32.462Z,89.07
2023-05-23T16:00:55.336Z,92.19
2023-05-23T16:02:18.989Z,91.26
2023-05-23T16:03:41.909Z,91.25
2023-05-23T16:05:07.073Z,91.92
2023-05-23T16:06:30.029Z,93.42
2023-05-23T16:07:52.912Z,93.67
2023-05-23T16:09:15.752Z,93.24
2023-05-23T16:10:38.527Z,93.30
2023-05-23T16:12:01.385Z,92.39
2023-05-23T16:13:24.392Z,92.44
2023-05-23T16:14:47.234Z,91.90
2023-05-23T16:16:10.145Z,91.87
2023-05-23T16:17:33.244Z,94.38
2023-05-23T16:18:55.711Z,93.91
2023-05-23T16:20:20.166Z,93.10
2023-05-23T16:21:43.618Z,92.48
2023-05-23T16:23:06.422Z,93.44
2023-05-23T16:24:29.253Z,93.44
2023-05-23T16:25:52.151Z,92.19
2023-05-23T16:27:15.193Z,91.08
2023-05-23T16:28:37.946Z,89.53
2023-05-23T16:30:00.842Z,89.41
2023-05-23T16:31:27.419Z,91.40
2023-05-23T16:32:50.394Z,90.77
2023-05-23T16:34:13.203Z,90.27
2023-05-23T16:35:37.305Z,89.05
2023-05-23T16:37:00.094Z,88.87
2023-05-23T16:38:22.915Z,89.16
2023-05-23T16:39:45.738Z,87.40
2023-05-23T16:41:08.569Z,88.10
2023-05-23T16:42:31.476Z,87.35
2023-05-23T16:43:54.322Z,87.25
2023-05-23T16:45:16.249Z,86.04
2023-05-23T16:46:39.107Z,86.47
2023-05-23T16:48:02.032Z,85.91
2023-05-23T16:49:24.864Z,85.94
2023-05-23T16:50:49.078Z,84.69
2023-05-23T16:52:11.254Z,86.03
2023-05-23T16:53:34.149Z,85.12
2023-05-23T16:54:56.952Z,84.84
2023-05-23T16:56:18.810Z,85.18
2023-05-23T16:57:41.622Z,85.25
2023-05-23T16:59:04.737Z,84.83
2023-05-23T17:00:27.749Z,84.42
2023-05-23T17:01:50.562Z,84.95
2023-05-23T17:03:13.508Z,85.02
2023-05-23T17:04:36.379Z,85.77
2023-05-23T17:06:00.915Z,85.06
2023-05-23T17:07:23.962Z,84.97
2023-05-23T17:08:46.801Z,83.97
2023-05-23T17:10:10.994Z,84.48
2023-05-23T17:11:33.791Z,85.72
2023-05-23T17:12:55.742Z,84.63
2023-05-23T17:14:18.662Z,85.22
2023-05-23T17:15:42.002Z,83.98
2023-05-23T17:17:05.415Z,84.89
2023-05-23T17:18:27.421Z,84.10
2023-05-23T17:19:50.227Z,83.81
2023-05-23T17:21:14.351Z,82.79
2023-05-23T17:22:38.089Z,83.32
2023-05-23T17:24:01.263Z,83.75
2023-05-23T17:25:24.421Z,83.63
2023-05-23T17:26:47.334Z,83.19
2023-05-23T17:28:10.129Z,83.40
2023-05-23T17:29:33.162Z,82.62
2023-05-23T17:30:56.579Z,82.99
2023-05-23T17:32:19.987Z,82.71
2023-05-23T17:33:42.841Z,81.10
2023-05-23T17:35:06.250Z,80.70
2023-05-23T17:36:30.875Z,80.10
2023-05-23T17:37:57.511Z,81.83
2023-05-23T17:39:20.348Z,80.27
2023-05-23T17:40:43.380Z,78.82
2023-05-23T17:42:06.997Z,79.06
2023-05-23T17:43:29.783Z,79.15
2023-05-23T17:44:52.613Z,79.29
2023-05-23T17:46:15.503Z,80.35
2023-05-23T17:47:38.358Z,78.75
2023-05-23T17:49:01.133Z,79.41
2023-05-23T17:50:22.978Z,78.68
2023-05-23T17:51:47.142Z,78.16
2023-05-23T17:53:09.961Z,78.39
2023-05-23T17:54:32.749Z,78.83
2023-05-23T17:55:55.555Z,78.13
2023-05-23T17:57:18.589Z,78.17
2023-05-23T17:58:43.397Z,77.99
2023-05-23T18:00:08.293Z,76.78